sensor_id;sensor_type;location;lat;lon;timestamp;P1;durP1;ratioP1;P2;durP2;ratioP2
46391;SDS011;32098;49.448;7.904;2022-08-04T00:02:02;3.22;;;2.92;;
46391;SDS011;32098;49.448;7.904;2022-08-04T00:07:40;3.15;;;2.95;;
46391;SDS011;32098;49.448;7.904;2022-08-04T00:10:12;3.30;;;3.10;;
46391;SDS011;32098;49.448;7.904;2022-08-04T00:12:43;4.65;;;3.38;;
46391;SDS011;32098;49.448;7.904;2022-08-04T00:15:16;3.60;;;3.30;;
46391;SDS011;32098;49.448;7.904;2022-08-04T00:17:59;4.57;;;3.90;;
46391;SDS011;32098;49.448;7.904;2022-08-04T00:20:29;3.60;;;3.30;;
46391;SDS011;32098;49.448;7.904;2022-08-04T00:22:58;3.60;;;3.30;;
46391;SDS011;32098;49.448;7.904;2022-08-04T00:25:26;3.80;;;3.50;;
46391;SDS011;32098;49.448;7.904;2022-08-04T00:27:53;3.85;;;3.25;;
46391;SDS011;32098;49.448;7.904;2022-08-04T00:30:20;3.83;;;3.35;;
46391;SDS011;32098;49.448;7.904;2022-08-04T00:32:47;3.63;;;3.33;;
46391;SDS011;32098;49.448;7.904;2022-08-04T00:35:15;4.13;;;3.63;;
46391;SDS011;32098;49.448;7.904;2022-08-04T00:37:43;4.43;;;4.03;;
46391;SDS011;32098;49.448;7.904;2022-08-04T00:40:46;4.32;;;3.97;;
46391;SDS011;32098;49.448;7.904;2022-08-04T00:49:16;3.17;;;2.97;;
46391;SDS011;32098;49.448;7.904;2022-08-04T00:55:03;3.53;;;3.22;;
46391;SDS011;32098;49.448;7.904;2022-08-04T01:00:15;5.47;;;3.38;;
46391;SDS011;32098;49.448;7.904;2022-08-04T01:05:44;3.58;;;3.28;;
46391;SDS011;32098;49.448;7.904;2022-08-04T01:11:47;3.47;;;3.17;;
46391;SDS011;32098;49.448;7.904;2022-08-04T01:17:17;4.05;;;3.10;;
46391;SDS011;32098;49.448;7.904;2022-08-04T01:27:46;3.45;;;2.92;;
46391;SDS011;32098;49.448;7.904;2022-08-04T01:30:39;3.78;;;3.47;;
46391;SDS011;32098;49.448;7.904;2022-08-04T01:33:08;5.18;;;3.40;;
46391;SDS011;32098;49.448;7.904;2022-08-04T01:38:32;6.47;;;3.53;;
46391;SDS011;32098;49.448;7.904;2022-08-04T01:41:18;5.20;;;3.40;;
46391;SDS011;32098;49.448;7.904;2022-08-04T01:43:58;4.05;;;3.75;;
46391;SDS011;32098;49.448;7.904;2022-08-04T01:46:28;5.18;;;3.35;;
46391;SDS011;32098;49.448;7.904;2022-08-04T01:48:59;3.90;;;3.30;;
46391;SDS011;32098;49.448;7.904;2022-08-04T01:51:27;4.05;;;3.65;;
46391;SDS011;32098;49.448;7.904;2022-08-04T01:54:00;4.13;;;3.72;;
46391;SDS011;32098;49.448;7.904;2022-08-04T01:56:26;3.85;;;3.55;;
46391;SDS011;32098;49.448;7.904;2022-08-04T01:58:56;3.80;;;3.50;;
46391;SDS011;32098;49.448;7.904;2022-08-04T02:01:23;3.78;;;3.47;;
46391;SDS011;32098;49.448;7.904;2022-08-04T02:03:49;3.67;;;3.38;;
46391;SDS011;32098;49.448;7.904;2022-08-04T02:15:14;4.28;;;3.97;;
46391;SDS011;32098;49.448;7.904;2022-08-04T02:20:34;4.38;;;3.78;;
46391;SDS011;32098;49.448;7.904;2022-08-04T02:23:09;4.20;;;3.78;;
46391;SDS011;32098;49.448;7.904;2022-08-04T02:25:46;4.18;;;3.78;;
46391;SDS011;32098;49.448;7.904;2022-08-04T02:33:43;3.70;;;3.40;;
46391;SDS011;32098;49.448;7.904;2022-08-04T02:36:22;4.05;;;3.67;;
46391;SDS011;32098;49.448;7.904;2022-08-04T02:39:12;4.47;;;4.07;;
46391;SDS011;32098;49.448;7.904;2022-08-04T02:41:44;3.90;;;3.60;;
46391;SDS011;32098;49.448;7.904;2022-08-04T02:44:13;4.28;;;3.63;;
46391;SDS011;32098;49.448;7.904;2022-08-04T02:46:41;4.20;;;3.80;;
46391;SDS011;32098;49.448;7.904;2022-08-04T02:49:09;4.10;;;3.80;;
46391;SDS011;32098;49.448;7.904;2022-08-04T02:51:37;4.80;;;4.32;;
46391;SDS011;32098;49.448;7.904;2022-08-04T02:54:07;4.20;;;3.90;;
46391;SDS011;32098;49.448;7.904;2022-08-04T02:56:35;4.20;;;3.80;;
46391;SDS011;32098;49.448;7.904;2022-08-04T02:59:08;4.72;;;4.28;;
46391;SDS011;32098;49.448;7.904;2022-08-04T03:01:36;5.20;;;4.53;;
46391;SDS011;32098;49.448;7.904;2022-08-04T03:07:50;4.25;;;3.88;;
46391;SDS011;32098;49.448;7.904;2022-08-04T03:11:09;4.25;;;3.88;;
46391;SDS011;32098;49.448;7.904;2022-08-04T03:13:33;4.13;;;3.83;;
46391;SDS011;32098;49.448;7.904;2022-08-04T03:19:15;3.95;;;3.65;;
46391;SDS011;32098;49.448;7.904;2022-08-04T03:21:53;4.88;;;3.85;;
46391;SDS011;32098;49.448;7.904;2022-08-04T03:30:18;5.03;;;3.92;;
46391;SDS011;32098;49.448;7.904;2022-08-04T03:33:13;4.82;;;4.43;;
46391;SDS011;32098;49.448;7.904;2022-08-04T03:35:51;5.53;;;3.78;;
46391;SDS011;32098;49.448;7.904;2022-08-04T03:41:30;4.78;;;4.25;;
46391;SDS011;32098;49.448;7.904;2022-08-04T03:48:07;4.57;;;4.18;;
46391;SDS011;32098;49.448;7.904;2022-08-04T04:02:02;4.70;;;4.30;;
46391;SDS011;32098;49.448;7.904;2022-08-04T04:10:45;4.38;;;3.97;;
46391;SDS011;32098;49.448;7.904;2022-08-04T04:18:57;4.35;;;3.95;;
46391;SDS011;32098;49.448;7.904;2022-08-04T04:30:16;4.13;;;3.78;;
46391;SDS011;32098;49.448;7.904;2022-08-04T04:32:58;4.35;;;3.72;;
46391;SDS011;32098;49.448;7.904;2022-08-04T04:35:42;4.68;;;4.05;;
46391;SDS011;32098;49.448;7.904;2022-08-04T04:38:28;4.50;;;4.10;;
46391;SDS011;32098;49.448;7.904;2022-08-04T04:49:49;4.40;;;4.00;;
46391;SDS011;32098;49.448;7.904;2022-08-04T04:52:39;5.97;;;4.40;;
46391;SDS011;32098;49.448;7.904;2022-08-04T04:55:26;4.38;;;4.00;;
46391;SDS011;32098;49.448;7.904;2022-08-04T04:58:13;5.72;;;3.97;;
46391;SDS011;32098;49.448;7.904;2022-08-04T05:00:55;4.85;;;3.92;;
46391;SDS011;32098;49.448;7.904;2022-08-04T05:06:42;4.25;;;3.85;;
46391;SDS011;32098;49.448;7.904;2022-08-04T05:09:26;4.65;;;4.25;;
46391;SDS011;32098;49.448;7.904;2022-08-04T05:15:09;4.10;;;3.80;;
46391;SDS011;32098;49.448;7.904;2022-08-04T05:17:40;4.37;;;4.00;;
46391;SDS011;32098;49.448;7.904;2022-08-04T05:20:15;5.68;;;4.80;;
46391;SDS011;32098;49.448;7.904;2022-08-04T05:23:04;6.05;;;4.38;;
46391;SDS011;32098;49.448;7.904;2022-08-04T05:25:37;5.13;;;4.47;;
46391;SDS011;32098;49.448;7.904;2022-08-04T05:28:26;4.57;;;4.18;;
46391;SDS011;32098;49.448;7.904;2022-08-04T05:31:03;5.72;;;4.40;;
46391;SDS011;32098;49.448;7.904;2022-08-04T05:33:39;6.38;;;4.55;;
46391;SDS011;32098;49.448;7.904;2022-08-04T05:36:16;4.90;;;4.28;;
46391;SDS011;32098;49.448;7.904;2022-08-04T05:39:06;7.45;;;4.15;;
46391;SDS011;32098;49.448;7.904;2022-08-04T05:41:39;6.47;;;4.88;;
46391;SDS011;32098;49.448;7.904;2022-08-04T05:44:14;5.75;;;4.00;;
46391;SDS011;32098;49.448;7.904;2022-08-04T05:46:43;4.32;;;4.03;;
46391;SDS011;32098;49.448;7.904;2022-08-04T05:49:20;4.15;;;3.75;;
46391;SDS011;32098;49.448;7.904;2022-08-04T05:51:48;5.32;;;3.85;;
46391;SDS011;32098;49.448;7.904;2022-08-04T05:54:16;4.82;;;4.32;;
46391;SDS011;32098;49.448;7.904;2022-08-04T05:56:44;5.03;;;3.78;;
46391;SDS011;32098;49.448;7.904;2022-08-04T05:59:11;6.93;;;4.53;;
46391;SDS011;32098;49.448;7.904;2022-08-04T06:01:40;7.35;;;4.00;;
46391;SDS011;32098;49.448;7.904;2022-08-04T06:04:24;5.47;;;3.75;;
46391;SDS011;32098;49.448;7.904;2022-08-04T06:07:00;4.75;;;4.13;;
46391;SDS011;32098;49.448;7.904;2022-08-04T06:09:27;7.85;;;4.00;;
46391;SDS011;32098;49.448;7.904;2022-08-04T06:11:54;4.05;;;3.60;;
46391;SDS011;32098;49.448;7.904;2022-08-04T06:14:35;5.22;;;4.10;;
46391;SDS011;32098;49.448;7.904;2022-08-04T06:17:06;4.82;;;4.22;;
46391;SDS011;32098;49.448;7.904;2022-08-04T06:19:54;4.13;;;3.72;;
46391;SDS011;32098;49.448;7.904;2022-08-04T06:22:43;4.63;;;4.22;;
46391;SDS011;32098;49.448;7.904;2022-08-04T06:25:14;5.00;;;3.85;;
46391;SDS011;32098;49.448;7.904;2022-08-04T06:27:45;4.28;;;3.60;;
46391;SDS011;32098;49.448;7.904;2022-08-04T06:30:14;4.00;;;3.60;;
46391;SDS011;32098;49.448;7.904;2022-08-04T06:32:44;4.20;;;3.78;;
46391;SDS011;32098;49.448;7.904;2022-08-04T06:35:14;4.93;;;3.60;;
46391;SDS011;32098;49.448;7.904;2022-08-04T06:37:46;4.75;;;3.47;;
46391;SDS011;32098;49.448;7.904;2022-08-04T06:40:17;6.00;;;3.67;;
46391;SDS011;32098;49.448;7.904;2022-08-04T06:42:58;4.00;;;3.70;;
46391;SDS011;32098;49.448;7.904;2022-08-04T06:45:26;4.25;;;3.22;;
46391;SDS011;32098;49.448;7.904;2022-08-04T06:47:54;5.07;;;3.50;;
46391;SDS011;32098;49.448;7.904;2022-08-04T06:50:21;11.48;;;3.92;;
46391;SDS011;32098;49.448;7.904;2022-08-04T06:53:08;18.15;;;4.15;;
46391;SDS011;32098;49.448;7.904;2022-08-04T06:55:35;5.50;;;3.33;;
46391;SDS011;32098;49.448;7.904;2022-08-04T06:58:03;3.90;;;3.50;;
46391;SDS011;32098;49.448;7.904;2022-08-04T07:00:31;4.22;;;3.72;;
46391;SDS011;32098;49.448;7.904;2022-08-04T07:02:59;4.53;;;3.40;;
46391;SDS011;32098;49.448;7.904;2022-08-04T07:05:28;6.63;;;3.72;;
46391;SDS011;32098;49.448;7.904;2022-08-04T07:07:56;3.55;;;2.90;;
46391;SDS011;32098;49.448;7.904;2022-08-04T07:10:27;9.20;;;3.40;;
46391;SDS011;32098;49.448;7.904;2022-08-04T07:12:56;3.72;;;3.28;;
46391;SDS011;32098;49.448;7.904;2022-08-04T07:15:24;3.55;;;3.28;;
46391;SDS011;32098;49.448;7.904;2022-08-04T07:17:52;3.20;;;3.00;;
46391;SDS011;32098;49.448;7.904;2022-08-04T07:20:20;4.18;;;3.35;;
46391;SDS011;32098;49.448;7.904;2022-08-04T07:23:02;5.00;;;3.75;;
46391;SDS011;32098;49.448;7.904;2022-08-04T07:25:32;6.07;;;3.83;;
46391;SDS011;32098;49.448;7.904;2022-08-04T07:28:23;3.83;;;3.40;;
46391;SDS011;32098;49.448;7.904;2022-08-04T07:30:51;3.92;;;3.58;;
46391;SDS011;32098;49.448;7.904;2022-08-04T07:33:19;5.63;;;3.45;;
46391;SDS011;32098;49.448;7.904;2022-08-04T07:35:47;4.00;;;3.70;;
46391;SDS011;32098;49.448;7.904;2022-08-04T07:38:39;4.65;;;4.00;;
46391;SDS011;32098;49.448;7.904;2022-08-04T07:41:23;3.95;;;3.65;;
46391;SDS011;32098;49.448;7.904;2022-08-04T07:44:06;4.45;;;4.05;;
46391;SDS011;32098;49.448;7.904;2022-08-04T07:46:35;5.28;;;3.83;;
46391;SDS011;32098;49.448;7.904;2022-08-04T07:49:02;4.13;;;3.70;;
46391;SDS011;32098;49.448;7.904;2022-08-04T07:51:29;4.10;;;3.80;;
46391;SDS011;32098;49.448;7.904;2022-08-04T07:53:56;4.30;;;3.97;;
46391;SDS011;32098;49.448;7.904;2022-08-04T07:56:24;5.57;;;4.18;;
46391;SDS011;32098;49.448;7.904;2022-08-04T07:58:52;4.20;;;3.80;;
46391;SDS011;32098;49.448;7.904;2022-08-04T08:01:19;4.32;;;4.00;;
46391;SDS011;32098;49.448;7.904;2022-08-04T08:03:46;6.15;;;3.92;;
46391;SDS011;32098;49.448;7.904;2022-08-04T08:06:15;5.38;;;4.03;;
46391;SDS011;32098;49.448;7.904;2022-08-04T08:09:00;4.45;;;3.90;;
46391;SDS011;32098;49.448;7.904;2022-08-04T08:11:40;4.30;;;3.90;;
46391;SDS011;32098;49.448;7.904;2022-08-04T08:14:28;3.53;;;3.33;;
46391;SDS011;32098;49.448;7.904;2022-08-04T08:16:57;3.78;;;3.40;;
46391;SDS011;32098;49.448;7.904;2022-08-04T08:19:24;4.60;;;3.50;;
46391;SDS011;32098;49.448;7.904;2022-08-04T08:21:51;3.42;;;3.22;;
46391;SDS011;32098;49.448;7.904;2022-08-04T08:24:29;4.15;;;3.30;;
46391;SDS011;32098;49.448;7.904;2022-08-04T08:26:58;3.50;;;3.20;;
46391;SDS011;32098;49.448;7.904;2022-08-04T08:29:26;4.03;;;3.05;;
46391;SDS011;32098;49.448;7.904;2022-08-04T08:31:54;5.80;;;2.97;;
46391;SDS011;32098;49.448;7.904;2022-08-04T08:34:27;3.00;;;2.80;;
46391;SDS011;32098;49.448;7.904;2022-08-04T08:39:37;3.45;;;2.90;;
46391;SDS011;32098;49.448;7.904;2022-08-04T08:42:14;2.92;;;2.70;;
46391;SDS011;32098;49.448;7.904;2022-08-04T08:45:19;3.47;;;2.90;;
46391;SDS011;32098;49.448;7.904;2022-08-04T08:48:03;3.97;;;2.80;;
46391;SDS011;32098;49.448;7.904;2022-08-04T08:53:44;3.38;;;3.08;;
46391;SDS011;32098;49.448;7.904;2022-08-04T08:56:25;3.28;;;2.97;;
46391;SDS011;32098;49.448;7.904;2022-08-04T09:05:01;3.00;;;2.80;;
46391;SDS011;32098;49.448;7.904;2022-08-04T09:10:48;2.92;;;2.70;;
46391;SDS011;32098;49.448;7.904;2022-08-04T09:13:35;3.05;;;2.85;;
46391;SDS011;32098;49.448;7.904;2022-08-04T09:19:32;3.22;;;3.00;;
46391;SDS011;32098;49.448;7.904;2022-08-04T09:22:13;4.65;;;2.90;;
46391;SDS011;32098;49.448;7.904;2022-08-04T09:27:40;3.30;;;2.92;;
46391;SDS011;32098;49.448;7.904;2022-08-04T09:30:11;3.20;;;2.90;;
46391;SDS011;32098;49.448;7.904;2022-08-04T09:35:52;3.17;;;2.92;;
46391;SDS011;32098;49.448;7.904;2022-08-04T09:47:29;4.22;;;3.03;;
46391;SDS011;32098;49.448;7.904;2022-08-04T09:50:16;4.13;;;2.75;;
46391;SDS011;32098;49.448;7.904;2022-08-04T09:53:01;3.58;;;2.80;;
46391;SDS011;32098;49.448;7.904;2022-08-04T10:01:29;3.53;;;2.60;;
46391;SDS011;32098;49.448;7.904;2022-08-04T10:04:00;3.92;;;2.97;;
46391;SDS011;32098;49.448;7.904;2022-08-04T10:09:07;2.63;;;2.50;;
46391;SDS011;32098;49.448;7.904;2022-08-04T10:11:58;2.80;;;2.60;;
46391;SDS011;32098;49.448;7.904;2022-08-04T10:14:47;2.70;;;2.50;;
46391;SDS011;32098;49.448;7.904;2022-08-04T10:23:14;2.88;;;2.67;;
46391;SDS011;32098;49.448;7.904;2022-08-04T10:28:56;2.10;;;1.95;;
46391;SDS011;32098;49.448;7.904;2022-08-04T10:31:38;3.00;;;1.90;;
46391;SDS011;32098;49.448;7.904;2022-08-04T10:34:12;2.47;;;2.28;;
46391;SDS011;32098;49.448;7.904;2022-08-04T10:36:50;2.75;;;2.03;;
46391;SDS011;32098;49.448;7.904;2022-08-04T10:39:24;2.40;;;2.20;;
46391;SDS011;32098;49.448;7.904;2022-08-04T10:42:31;2.50;;;2.40;;
46391;SDS011;32098;49.448;7.904;2022-08-04T10:45:11;3.33;;;2.60;;
46391;SDS011;32098;49.448;7.904;2022-08-04T10:48:04;2.58;;;2.40;;
46391;SDS011;32098;49.448;7.904;2022-08-04T10:50:36;2.88;;;2.55;;
46391;SDS011;32098;49.448;7.904;2022-08-04T10:53:16;2.35;;;2.20;;
46391;SDS011;32098;49.448;7.904;2022-08-04T10:55:48;2.30;;;2.10;;
46391;SDS011;32098;49.448;7.904;2022-08-04T10:58:53;2.00;;;1.90;;
46391;SDS011;32098;49.448;7.904;2022-08-04T11:01:22;2.83;;;2.13;;
46391;SDS011;32098;49.448;7.904;2022-08-04T11:04:25;3.17;;;1.90;;
46391;SDS011;32098;49.448;7.904;2022-08-04T11:07:00;2.50;;;1.95;;
46391;SDS011;32098;49.448;7.904;2022-08-04T11:09:28;4.05;;;2.03;;
46391;SDS011;32098;49.448;7.904;2022-08-04T11:12:00;2.47;;;2.10;;
46391;SDS011;32098;49.448;7.904;2022-08-04T11:14:36;2.00;;;1.90;;
46391;SDS011;32098;49.448;7.904;2022-08-04T11:17:08;1.80;;;1.70;;
46391;SDS011;32098;49.448;7.904;2022-08-04T11:19:59;1.70;;;1.60;;
46391;SDS011;32098;49.448;7.904;2022-08-04T11:22:57;2.00;;;1.83;;
46391;SDS011;32098;49.448;7.904;2022-08-04T11:25:40;3.20;;;2.03;;
46391;SDS011;32098;49.448;7.904;2022-08-04T11:28:21;2.63;;;1.75;;
46391;SDS011;32098;49.448;7.904;2022-08-04T11:31:04;2.85;;;1.63;;
46391;SDS011;32098;49.448;7.904;2022-08-04T11:36:40;2.70;;;1.73;;
46391;SDS011;32098;49.448;7.904;2022-08-04T11:39:17;2.40;;;1.73;;
46391;SDS011;32098;49.448;7.904;2022-08-04T11:41:52;2.85;;;1.80;;
46391;SDS011;32098;49.448;7.904;2022-08-04T11:47:35;2.25;;;1.48;;
46391;SDS011;32098;49.448;7.904;2022-08-04T11:50:21;1.60;;;1.50;;
46391;SDS011;32098;49.448;7.904;2022-08-04T11:52:50;1.75;;;1.60;;
46391;SDS011;32098;49.448;7.904;2022-08-04T11:55:18;1.88;;;1.67;;
46391;SDS011;32098;49.448;7.904;2022-08-04T11:57:47;1.73;;;1.60;;
46391;SDS011;32098;49.448;7.904;2022-08-04T12:00:19;2.05;;;1.70;;
46391;SDS011;32098;49.448;7.904;2022-08-04T12:03:03;2.17;;;1.42;;
46391;SDS011;32098;49.448;7.904;2022-08-04T12:05:53;3.05;;;1.65;;
46391;SDS011;32098;49.448;7.904;2022-08-04T12:08:35;1.65;;;1.55;;
46391;SDS011;32098;49.448;7.904;2022-08-04T12:12:09;2.70;;;1.77;;
46391;SDS011;32098;49.448;7.904;2022-08-04T12:14:32;2.05;;;1.45;;
46391;SDS011;32098;49.448;7.904;2022-08-04T12:17:09;2.03;;;1.92;;
46391;SDS011;32098;49.448;7.904;2022-08-04T12:19:50;2.03;;;1.80;;
46391;SDS011;32098;49.448;7.904;2022-08-04T12:22:34;4.40;;;1.83;;
46391;SDS011;32098;49.448;7.904;2022-08-04T12:25:08;1.60;;;1.50;;
46391;SDS011;32098;49.448;7.904;2022-08-04T12:27:41;3.83;;;1.60;;
46391;SDS011;32098;49.448;7.904;2022-08-04T12:30:17;2.90;;;1.48;;
46391;SDS011;32098;49.448;7.904;2022-08-04T12:38:35;1.65;;;1.55;;
46391;SDS011;32098;49.448;7.904;2022-08-04T12:41:11;1.63;;;1.52;;
46391;SDS011;32098;49.448;7.904;2022-08-04T12:43:41;1.30;;;1.20;;
46391;SDS011;32098;49.448;7.904;2022-08-04T12:46:08;3.28;;;1.42;;
46391;SDS011;32098;49.448;7.904;2022-08-04T12:48:37;1.42;;;1.33;;
46391;SDS011;32098;49.448;7.904;2022-08-04T12:51:07;1.38;;;1.30;;
46391;SDS011;32098;49.448;7.904;2022-08-04T12:53:55;1.30;;;1.30;;
46391;SDS011;32098;49.448;7.904;2022-08-04T12:56:24;2.72;;;1.55;;
46391;SDS011;32098;49.448;7.904;2022-08-04T12:58:53;1.52;;;1.30;;
46391;SDS011;32098;49.448;7.904;2022-08-04T13:01:27;2.08;;;1.45;;
46391;SDS011;32098;49.448;7.904;2022-08-04T13:04:16;2.30;;;1.60;;
46391;SDS011;32098;49.448;7.904;2022-08-04T13:06:50;3.78;;;1.50;;
46391;SDS011;32098;49.448;7.904;2022-08-04T13:09:21;2.80;;;1.50;;
46391;SDS011;32098;49.448;7.904;2022-08-04T13:11:51;1.38;;;1.27;;
46391;SDS011;32098;49.448;7.904;2022-08-04T13:14:20;2.03;;;1.60;;
46391;SDS011;32098;49.448;7.904;2022-08-04T13:16:57;2.03;;;1.60;;
46391;SDS011;32098;49.448;7.904;2022-08-04T13:19:27;1.90;;;1.40;;
46391;SDS011;32098;49.448;7.904;2022-08-04T13:21:56;1.60;;;1.50;;
46391;SDS011;32098;49.448;7.904;2022-08-04T13:24:29;1.67;;;1.20;;
46391;SDS011;32098;49.448;7.904;2022-08-04T13:27:01;2.55;;;1.85;;
46391;SDS011;32098;49.448;7.904;2022-08-04T13:29:42;1.70;;;1.60;;
46391;SDS011;32098;49.448;7.904;2022-08-04T13:32:26;1.88;;;1.75;;
46391;SDS011;32098;49.448;7.904;2022-08-04T13:34:53;3.15;;;1.70;;
46391;SDS011;32098;49.448;7.904;2022-08-04T13:37:29;1.70;;;1.60;;
46391;SDS011;32098;49.448;7.904;2022-08-04T13:40:01;1.65;;;1.55;;
46391;SDS011;32098;49.448;7.904;2022-08-04T13:42:30;1.63;;;1.52;;
46391;SDS011;32098;49.448;7.904;2022-08-04T13:45:03;2.38;;;1.77;;
46391;SDS011;32098;49.448;7.904;2022-08-04T13:47:33;1.70;;;1.55;;
46391;SDS011;32098;49.448;7.904;2022-08-04T13:50:11;2.00;;;1.70;;
46391;SDS011;32098;49.448;7.904;2022-08-04T13:52:41;2.10;;;1.90;;
46391;SDS011;32098;49.448;7.904;2022-08-04T13:55:23;2.05;;;1.90;;
46391;SDS011;32098;49.448;7.904;2022-08-04T13:58:01;1.80;;;1.70;;
46391;SDS011;32098;49.448;7.904;2022-08-04T14:00:38;1.85;;;1.75;;
46391;SDS011;32098;49.448;7.904;2022-08-04T14:03:08;3.00;;;2.00;;
46391;SDS011;32098;49.448;7.904;2022-08-04T14:09:32;2.05;;;1.95;;
46391;SDS011;32098;49.448;7.904;2022-08-04T14:11:47;2.30;;;2.08;;
46391;SDS011;32098;49.448;7.904;2022-08-04T14:14:45;1.90;;;1.80;;
46391;SDS011;32098;49.448;7.904;2022-08-04T14:17:18;2.00;;;1.90;;
46391;SDS011;32098;49.448;7.904;2022-08-04T14:19:56;2.50;;;2.30;;
46391;SDS011;32098;49.448;7.904;2022-08-04T14:25:03;2.05;;;1.92;;
46391;SDS011;32098;49.448;7.904;2022-08-04T14:27:54;4.32;;;2.03;;
46391;SDS011;32098;49.448;7.904;2022-08-04T14:35:55;2.00;;;1.90;;
46391;SDS011;32098;49.448;7.904;2022-08-04T14:38:24;2.03;;;1.88;;
46391;SDS011;32098;49.448;7.904;2022-08-04T14:41:07;2.88;;;1.90;;
46391;SDS011;32098;49.448;7.904;2022-08-04T14:43:45;4.93;;;2.10;;
46391;SDS011;32098;49.448;7.904;2022-08-04T14:46:13;2.55;;;1.80;;
46391;SDS011;32098;49.448;7.904;2022-08-04T14:49:00;3.13;;;2.05;;
46391;SDS011;32098;49.448;7.904;2022-08-04T14:51:44;2.00;;;1.90;;
46391;SDS011;32098;49.448;7.904;2022-08-04T14:54:25;4.20;;;1.70;;
46391;SDS011;32098;49.448;7.904;2022-08-04T14:56:54;2.17;;;1.98;;
46391;SDS011;32098;49.448;7.904;2022-08-04T14:59:39;2.40;;;1.70;;
46391;SDS011;32098;49.448;7.904;2022-08-04T15:02:27;3.03;;;1.88;;
46391;SDS011;32098;49.448;7.904;2022-08-04T15:04:55;3.92;;;1.75;;
46391;SDS011;32098;49.448;7.904;2022-08-04T15:07:23;2.38;;;1.90;;
46391;SDS011;32098;49.448;7.904;2022-08-04T15:09:50;9.85;;;2.70;;
46391;SDS011;32098;49.448;7.904;2022-08-04T15:12:18;21.67;;;4.57;;
46391;SDS011;32098;49.448;7.904;2022-08-04T15:14:45;9.27;;;2.58;;
46391;SDS011;32098;49.448;7.904;2022-08-04T15:17:12;9.38;;;2.63;;
46391;SDS011;32098;49.448;7.904;2022-08-04T15:19:55;13.45;;;3.45;;
46391;SDS011;32098;49.448;7.904;2022-08-04T15:22:22;6.30;;;3.13;;
46391;SDS011;32098;49.448;7.904;2022-08-04T15:24:49;3.40;;;2.10;;
46391;SDS011;32098;49.448;7.904;2022-08-04T15:27:22;4.80;;;2.00;;
46391;SDS011;32098;49.448;7.904;2022-08-04T15:29:51;8.10;;;2.40;;
46391;SDS011;32098;49.448;7.904;2022-08-04T15:32:28;2.38;;;1.90;;
46391;SDS011;32098;49.448;7.904;2022-08-04T15:35:01;4.15;;;2.70;;
46391;SDS011;32098;49.448;7.904;2022-08-04T15:37:31;5.93;;;2.10;;
46391;SDS011;32098;49.448;7.904;2022-08-04T15:40:12;2.53;;;2.10;;
46391;SDS011;32098;49.448;7.904;2022-08-04T15:42:44;3.80;;;2.10;;
46391;SDS011;32098;49.448;7.904;2022-08-04T15:45:24;4.15;;;2.28;;
46391;SDS011;32098;49.448;7.904;2022-08-04T15:56:50;2.03;;;1.83;;
46391;SDS011;32098;49.448;7.904;2022-08-04T16:02:37;3.55;;;2.20;;
46391;SDS011;32098;49.448;7.904;2022-08-04T16:10:37;3.25;;;1.95;;
46391;SDS011;32098;49.448;7.904;2022-08-04T16:13:13;3.25;;;2.10;;
46391;SDS011;32098;49.448;7.904;2022-08-04T16:18:08;2.75;;;2.10;;
46391;SDS011;32098;49.448;7.904;2022-08-04T16:20:53;2.28;;;2.05;;
46391;SDS011;32098;49.448;7.904;2022-08-04T16:29:03;2.20;;;2.00;;
46391;SDS011;32098;49.448;7.904;2022-08-04T16:34:32;2.30;;;2.10;;
46391;SDS011;32098;49.448;7.904;2022-08-04T16:37:20;2.13;;;2.03;;
46391;SDS011;32098;49.448;7.904;2022-08-04T16:39:48;2.13;;;2.03;;
46391;SDS011;32098;49.448;7.904;2022-08-04T16:44:59;2.28;;;2.10;;
46391;SDS011;32098;49.448;7.904;2022-08-04T16:50:12;3.15;;;2.30;;
46391;SDS011;32098;49.448;7.904;2022-08-04T16:52:41;2.20;;;2.00;;
46391;SDS011;32098;49.448;7.904;2022-08-04T16:55:09;2.15;;;1.95;;
46391;SDS011;32098;49.448;7.904;2022-08-04T16:57:36;2.78;;;1.90;;
46391;SDS011;32098;49.448;7.904;2022-08-04T17:00:04;2.92;;;2.08;;
46391;SDS011;32098;49.448;7.904;2022-08-04T17:02:31;2.58;;;2.17;;
46391;SDS011;32098;49.448;7.904;2022-08-04T17:04:58;2.60;;;2.10;;
46391;SDS011;32098;49.448;7.904;2022-08-04T17:08:07;3.45;;;2.17;;
46391;SDS011;32098;49.448;7.904;2022-08-04T17:10:47;2.88;;;2.30;;
46391;SDS011;32098;49.448;7.904;2022-08-04T17:13:21;2.40;;;2.20;;
46391;SDS011;32098;49.448;7.904;2022-08-04T17:16:11;2.40;;;2.20;;
46391;SDS011;32098;49.448;7.904;2022-08-04T17:18:45;3.88;;;2.00;;
46391;SDS011;32098;49.448;7.904;2022-08-04T17:21:15;2.17;;;2.00;;
46391;SDS011;32098;49.448;7.904;2022-08-04T17:23:51;2.13;;;2.03;;
46391;SDS011;32098;49.448;7.904;2022-08-04T17:26:40;3.83;;;2.00;;
46391;SDS011;32098;49.448;7.904;2022-08-04T17:29:23;2.35;;;2.15;;
46391;SDS011;32098;49.448;7.904;2022-08-04T17:32:16;3.45;;;2.10;;
46391;SDS011;32098;49.448;7.904;2022-08-04T17:34:47;2.42;;;2.22;;
46391;SDS011;32098;49.448;7.904;2022-08-04T17:37:16;2.20;;;2.00;;
46391;SDS011;32098;49.448;7.904;2022-08-04T17:40:06;2.67;;;2.00;;
46391;SDS011;32098;49.448;7.904;2022-08-04T17:42:36;3.67;;;2.00;;
46391;SDS011;32098;49.448;7.904;2022-08-04T17:45:15;4.57;;;2.20;;
46391;SDS011;32098;49.448;7.904;2022-08-04T17:48:05;4.78;;;2.30;;
46391;SDS011;32098;49.448;7.904;2022-08-04T17:50:34;4.43;;;2.05;;
46391;SDS011;32098;49.448;7.904;2022-08-04T17:53:04;3.65;;;2.28;;
46391;SDS011;32098;49.448;7.904;2022-08-04T17:55:41;2.45;;;2.22;;
46391;SDS011;32098;49.448;7.904;2022-08-04T17:58:21;2.20;;;2.10;;
46391;SDS011;32098;49.448;7.904;2022-08-04T18:00:58;2.80;;;2.60;;
46391;SDS011;32098;49.448;7.904;2022-08-04T18:03:46;2.67;;;2.47;;
46391;SDS011;32098;49.448;7.904;2022-08-04T18:06:19;2.97;;;2.65;;
46391;SDS011;32098;49.448;7.904;2022-08-04T18:08:53;3.17;;;2.60;;
46391;SDS011;32098;49.448;7.904;2022-08-04T18:11:24;4.63;;;2.50;;
46391;SDS011;32098;49.448;7.904;2022-08-04T18:14:06;6.00;;;2.90;;
46391;SDS011;32098;49.448;7.904;2022-08-04T18:16:41;3.30;;;2.30;;
46391;SDS011;32098;49.448;7.904;2022-08-04T18:19:09;4.93;;;2.58;;
46391;SDS011;32098;49.448;7.904;2022-08-04T18:21:37;5.15;;;2.78;;
46391;SDS011;32098;49.448;7.904;2022-08-04T18:24:23;7.18;;;2.58;;
46391;SDS011;32098;49.448;7.904;2022-08-04T18:27:00;2.20;;;2.10;;
46391;SDS011;32098;49.448;7.904;2022-08-04T18:29:27;2.75;;;2.20;;
46391;SDS011;32098;49.448;7.904;2022-08-04T18:31:57;20.20;;;3.28;;
46391;SDS011;32098;49.448;7.904;2022-08-04T18:34:25;10.85;;;3.45;;
46391;SDS011;32098;49.448;7.904;2022-08-04T18:36:53;7.20;;;2.88;;
46391;SDS011;32098;49.448;7.904;2022-08-04T18:39:24;11.27;;;2.50;;
46391;SDS011;32098;49.448;7.904;2022-08-04T18:42:13;6.22;;;2.75;;
46391;SDS011;32098;49.448;7.904;2022-08-04T18:44:41;5.35;;;2.50;;
46391;SDS011;32098;49.448;7.904;2022-08-04T18:47:18;5.75;;;2.78;;
46391;SDS011;32098;49.448;7.904;2022-08-04T18:49:55;3.67;;;2.42;;
46391;SDS011;32098;49.448;7.904;2022-08-04T18:52:42;2.90;;;2.67;;
46391;SDS011;32098;49.448;7.904;2022-08-04T18:55:11;4.78;;;2.38;;
46391;SDS011;32098;49.448;7.904;2022-08-04T18:58:01;4.10;;;2.40;;
46391;SDS011;32098;49.448;7.904;2022-08-04T19:00:33;3.45;;;2.50;;
46391;SDS011;32098;49.448;7.904;2022-08-04T19:03:01;4.15;;;3.03;;
46391;SDS011;32098;49.448;7.904;2022-08-04T19:05:28;2.70;;;2.50;;
46391;SDS011;32098;49.448;7.904;2022-08-04T19:08:07;2.85;;;2.58;;
46391;SDS011;32098;49.448;7.904;2022-08-04T19:10:53;5.93;;;2.90;;
46391;SDS011;32098;49.448;7.904;2022-08-04T19:13:25;2.90;;;2.63;;
46391;SDS011;32098;49.448;7.904;2022-08-04T19:15:52;4.63;;;2.63;;
46391;SDS011;32098;49.448;7.904;2022-08-04T19:18:19;4.00;;;2.47;;
46391;SDS011;32098;49.448;7.904;2022-08-04T19:20:46;3.33;;;2.55;;
46391;SDS011;32098;49.448;7.904;2022-08-04T19:23:15;4.10;;;2.35;;
46391;SDS011;32098;49.448;7.904;2022-08-04T19:26:01;2.53;;;2.30;;